Time,TemperatureF,DewpointF,PressureIn,WindDirection,WindDirectionDegrees,WindSpeedMPH,WindSpeedGustMPH,Humidity,HourlyPrecipIn,Conditions,Clouds,dailyrainin,SoftwareType,DateUTC
2013-03-08 00:00:00,32.4,19.6,30.22,NNW,338,0.0,0.0,59,0.00,,,0.00,meteohub,2013-03-08 05:00:00,
2013-03-08 00:01:00,32.5,19.8,30.22,NNW,338,0.0,3.0,59,0.00,,,0.00,meteohub,2013-03-08 05:01:00,
2013-03-08 00:06:00,32.5,19.4,30.22,NNW,338,0.0,3.0,58,0.00,,,0.00,meteohub,2013-03-08 05:06:00,
2013-03-08 00:11:00,32.5,19.4,30.22,NNW,338,0.0,3.0,58,0.00,,,0.00,meteohub,2013-03-08 05:11:00,
2013-03-08 00:16:00,32.5,19.4,30.22,NNW,338,0.0,0.0,58,0.00,,,0.00,meteohub,2013-03-08 05:16:00,
2013-03-08 00:21:00,32.5,19.0,30.22,NNW,338,0.0,0.0,57,0.00,,,0.00,meteohub,2013-03-08 05:21:00,
2013-03-08 00:26:00,32.4,19.2,30.22,NNW,338,0.0,0.0,58,0.00,,,0.00,meteohub,2013-03-08 05:26:00,
2013-03-08 00:31:00,32.4,19.2,30.22,NNW,338,0.0,0.0,58,0.00,,,0.00,meteohub,2013-03-08 05:31:00,
2013-03-08 00:36:00,32.0,18.9,30.22,NNW,338,0.0,0.0,58,0.00,,,0.00,meteohub,2013-03-08 05:36:00,
2013-03-08 00:41:00,32.2,19.0,30.22,NNW,338,0.0,2.0,58,0.00,,,0.00,meteohub,2013-03-08 05:41:00,
2013-03-08 00:46:00,32.2,19.0,30.22,NNW,338,0.0,2.0,58,0.00,,,0.00,meteohub,2013-03-08 05:46:00,
2013-03-08 00:51:00,32.0,18.5,30.22,NNW,338,0.0,3.0,57,0.00,,,0.00,meteohub,2013-03-08 05:51:00,
2013-03-08 00:56:00,31.8,18.7,30.22,NNW,338,0.0,3.0,58,0.00,,,0.00,meteohub,2013-03-08 05:56:00,
2013-03-08 01:01:00,32.2,19.0,30.22,NNW,338,0.0,2.0,58,0.00,,,0.00,meteohub,2013-03-08 06:01:00,
2013-03-08 01:06:00,31.6,18.1,30.22,NNE,22,0.0,3.0,57,0.00,,,0.00,meteohub,2013-03-08 06:06:00,
2013-03-08 01:11:00,31.6,18.5,30.22,NNE,22,0.0,3.0,58,0.00,,,0.00,meteohub,2013-03-08 06:11:00,
2013-03-08 01:16:00,31.3,18.1,30.22,NNE,22,0.0,3.0,58,0.00,,,0.00,meteohub,2013-03-08 06:16:00,
2013-03-08 01:21:00,31.1,18.5,30.22,NNE,22,0.0,3.0,59,0.00,,,0.00,meteohub,2013-03-08 06:21:00,
2013-03-08 01:26:00,30.9,18.3,30.22,NNE,22,0.0,0.0,59,0.00,,,0.00,meteohub,2013-03-08 06:26:00,
2013-03-08 01:31:00,30.6,18.3,30.22,NNE,22,0.0,0.0,60,0.00,,,0.00,meteohub,2013-03-08 06:31:00,
2013-03-08 01:36:00,30.6,18.3,30.22,NNE,22,0.0,0.0,60,0.00,,,0.00,meteohub,2013-03-08 06:36:00,
2013-03-08 01:41:00,30.6,18.7,30.22,NNE,22,0.0,0.0,61,0.00,,,0.00,meteohub,2013-03-08 06:41:00,
2013-03-08 01:46:00,30.6,18.7,30.22,NNE,22,0.0,0.0,61,0.00,,,0.00,meteohub,2013-03-08 06:46:00,
2013-03-08 01:51:00,30.6,19.0,30.22,NNE,22,0.0,0.0,62,0.00,,,0.00,meteohub,2013-03-08 06:51:00,
2013-03-08 01:56:00,30.7,19.2,30.22,WNW,292,0.0,0.0,62,0.00,,,0.00,meteohub,2013-03-08 06:56:00,
2013-03-08 02:01:00,31.1,19.2,30.22,WNW,292,0.0,3.0,61,0.00,,,0.00,meteohub,2013-03-08 07:01:00,
2013-03-08 02:06:00,30.9,19.0,30.22,WNW,292,0.0,3.0,61,0.00,,,0.00,meteohub,2013-03-08 07:06:00,
2013-03-08 02:11:00,30.9,19.0,30.19,WNW,292,0.0,3.0,61,0.00,,,0.00,meteohub,2013-03-08 07:11:00,
2013-03-08 02:17:00,30.7,18.9,30.19,WNW,292,0.0,2.0,61,0.00,,,0.00,meteohub,2013-03-08 07:17:00,
2013-03-08 02:22:00,30.9,19.0,30.19,WNW,292,0.0,2.0,61,0.00,,,0.00,meteohub,2013-03-08 07:22:00,
2013-03-08 02:27:00,30.6,18.7,30.19,WNW,292,0.0,2.0,61,0.00,,,0.00,meteohub,2013-03-08 07:27:00,
2013-03-08 02:32:00,30.6,18.7,30.19,WNW,292,0.0,0.0,61,0.00,,,0.00,meteohub,2013-03-08 07:32:00,
2013-03-08 02:37:00,30.4,18.9,30.19,WNW,292,0.0,3.0,62,0.00,,,0.00,meteohub,2013-03-08 07:37:00,
2013-03-08 02:42:00,30.4,18.9,30.19,WNW,292,0.0,3.0,62,0.00,,,0.00,meteohub,2013-03-08 07:42:00,
2013-03-08 02:47:00,30.2,18.7,30.19,WNW,292,0.0,3.0,62,0.00,,,0.00,meteohub,2013-03-08 07:47:00,
2013-03-08 02:52:00,30.2,19.0,30.19,WNW,292,0.0,0.0,63,0.00,,,0.00,meteohub,2013-03-08 07:52:00,
2013-03-08 02:57:00,30.4,18.9,30.19,WNW,292,0.0,2.0,62,0.00,,,0.00,meteohub,2013-03-08 07:57:00,
2013-03-08 03:02:00,30.6,19.0,30.19,WNW,292,0.0,2.0,62,0.00,,,0.00,meteohub,2013-03-08 08:02:00,
2013-03-08 03:07:00,30.7,18.9,30.19,WNW,292,0.0,2.0,61,0.00,,,0.00,meteohub,2013-03-08 08:07:00,
2013-03-08 03:12:00,31.1,19.2,30.19,WNW,292,0.0,3.0,61,0.00,,,0.00,meteohub,2013-03-08 08:12:00,
2013-03-08 03:17:00,30.9,18.7,30.19,WNW,292,0.0,3.0,60,0.00,,,0.00,meteohub,2013-03-08 08:17:00,
2013-03-08 03:22:00,30.7,18.5,30.19,WNW,292,0.0,3.0,60,0.00,,,0.00,meteohub,2013-03-08 08:22:00,
2013-03-08 03:27:00,30.9,18.7,30.19,WNW,292,0.0,2.0,60,0.00,,,0.00,meteohub,2013-03-08 08:27:00,
2013-03-08 03:32:00,30.6,18.3,30.19,WNW,292,0.0,3.0,60,0.00,,,0.00,meteohub,2013-03-08 08:32:00,
2013-03-08 03:37:00,30.6,18.3,30.19,WNW,292,0.0,3.0,60,0.00,,,0.00,meteohub,2013-03-08 08:37:00,
2013-03-08 03:42:00,30.2,18.3,30.19,WNW,292,0.0,2.0,61,0.00,,,0.00,meteohub,2013-03-08 08:42:00,
2013-03-08 03:47:00,30.2,18.7,30.19,WNW,292,0.0,0.0,62,0.00,,,0.00,meteohub,2013-03-08 08:47:00,
2013-03-08 03:52:00,30.0,18.5,30.19,WNW,292,0.0,0.0,62,0.00,,,0.00,meteohub,2013-03-08 08:52:00,
2013-03-08 03:57:00,30.4,18.9,30.19,WNW,292,0.0,0.0,62,0.00,,,0.00,meteohub,2013-03-08 08:57:00,
2013-03-08 04:02:00,30.4,18.9,30.19,WNW,292,3.0,3.0,62,0.00,,,0.00,meteohub,2013-03-08 09:02:00,
2013-03-08 04:07:00,30.4,18.9,30.19,WNW,292,0.0,3.0,62,0.00,,,0.00,meteohub,2013-03-08 09:07:00,
2013-03-08 04:12:00,30.2,18.7,30.19,WNW,292,0.0,3.0,62,0.00,,,0.00,meteohub,2013-03-08 09:12:00,
2013-03-08 04:17:00,30.2,18.7,30.19,WNW,292,0.0,3.0,62,0.00,,,0.00,meteohub,2013-03-08 09:17:00,
2013-03-08 04:22:00,30.0,19.0,30.19,WNW,292,0.0,2.0,63,0.00,,,0.00,meteohub,2013-03-08 09:22:00,
2013-03-08 04:27:00,30.2,19.0,30.19,WNW,292,0.0,3.0,63,0.00,,,0.00,meteohub,2013-03-08 09:27:00,
2013-03-08 04:32:00,29.8,18.9,30.19,WNW,292,0.0,3.0,63,0.00,,,0.00,meteohub,2013-03-08 09:32:00,
2013-03-08 04:37:00,29.5,18.5,30.19,WNW,292,0.0,3.0,63,0.00,,,0.00,meteohub,2013-03-08 09:37:00,
2013-03-08 04:42:00,29.3,18.7,30.19,WNW,292,0.0,3.0,64,0.00,,,0.00,meteohub,2013-03-08 09:42:00,
2013-03-08 04:47:00,29.3,18.7,30.19,WNW,292,0.0,0.0,64,0.00,,,0.00,meteohub,2013-03-08 09:47:00,
2013-03-08 04:52:00,29.1,18.9,30.19,WNW,292,0.0,0.0,65,0.00,,,0.00,meteohub,2013-03-08 09:52:00,
2013-03-08 04:57:00,29.1,18.9,30.19,WNW,292,0.0,0.0,65,0.00,,,0.00,meteohub,2013-03-08 09:57:00,
2013-03-08 05:02:00,29.3,19.4,30.19,WNW,292,0.0,2.0,66,0.00,,,0.00,meteohub,2013-03-08 10:02:00,
2013-03-08 05:07:00,29.5,19.6,30.19,WNW,292,0.0,3.0,66,0.00,,,0.00,meteohub,2013-03-08 10:07:00,
2013-03-08 05:12:00,29.7,19.8,30.19,WNW,292,0.0,3.0,66,0.00,,,0.00,meteohub,2013-03-08 10:12:00,
2013-03-08 05:17:00,29.5,19.2,30.19,WNW,292,0.0,2.0,65,0.00,,,0.00,meteohub,2013-03-08 10:17:00,
2013-03-08 05:22:00,29.3,19.0,30.19,WNW,292,0.0,2.0,65,0.00,,,0.00,meteohub,2013-03-08 10:22:00,
2013-03-08 05:27:00,29.1,19.2,30.19,WNW,292,0.0,0.0,66,0.00,,,0.00,meteohub,2013-03-08 10:27:00,
2013-03-08 05:32:00,28.9,19.0,30.19,WNW,292,0.0,0.0,66,0.00,,,0.00,meteohub,2013-03-08 10:32:00,
2013-03-08 05:37:00,28.9,19.0,30.19,WNW,292,0.0,2.0,66,0.00,,,0.00,meteohub,2013-03-08 10:37:00,
2013-03-08 05:42:00,28.6,19.0,30.19,WNW,292,0.0,2.0,67,0.00,,,0.00,meteohub,2013-03-08 10:42:00,
2013-03-08 05:47:00,28.6,19.0,30.19,WNW,292,0.0,2.0,67,0.00,,,0.00,meteohub,2013-03-08 10:47:00,
2013-03-08 05:52:00,28.0,18.9,30.19,WNW,292,0.0,0.0,68,0.00,,,0.00,meteohub,2013-03-08 10:52:00,
2013-03-08 05:57:00,27.9,18.7,30.19,WNW,292,0.0,0.0,68,0.00,,,0.00,meteohub,2013-03-08 10:57:00,
2013-03-08 06:02:00,27.7,18.9,30.19,WNW,292,0.0,0.0,69,0.00,,,0.00,meteohub,2013-03-08 11:02:00,
2013-03-08 06:07:00,27.3,18.9,30.19,WNW,292,0.0,0.0,70,0.00,,,0.00,meteohub,2013-03-08 11:07:00,
2013-03-08 06:12:00,27.5,19.4,30.22,WNW,292,0.0,0.0,71,0.00,,,0.00,meteohub,2013-03-08 11:12:00,
2013-03-08 06:17:00,27.9,19.9,30.22,WNW,292,0.0,0.0,72,0.00,,,0.00,meteohub,2013-03-08 11:17:00,
2013-03-08 06:22:00,27.7,19.8,30.22,WNW,292,0.0,0.0,72,0.00,,,0.00,meteohub,2013-03-08 11:22:00,
2013-03-08 06:27:00,27.7,19.8,30.22,WNW,292,0.0,0.0,72,0.00,,,0.00,meteohub,2013-03-08 11:27:00,
2013-03-08 06:32:00,27.9,20.3,30.22,WNW,292,0.0,0.0,73,0.00,,,0.00,meteohub,2013-03-08 11:32:00,
2013-03-08 06:37:00,28.2,20.7,30.22,WNW,292,2.0,0.0,73,0.00,,,0.00,meteohub,2013-03-08 11:37:00,
2013-03-08 06:42:00,28.6,21.0,30.22,WNW,292,0.0,3.0,73,0.00,,,0.00,meteohub,2013-03-08 11:42:00,
2013-03-08 06:47:00,28.4,20.5,30.22,WNW,292,0.0,3.0,72,0.00,,,0.00,meteohub,2013-03-08 11:47:00,
2013-03-08 06:52:00,28.4,20.5,30.22,WNW,292,2.0,3.0,72,0.00,,,0.00,meteohub,2013-03-08 11:52:00,
2013-03-08 06:57:00,29.5,21.6,30.22,WNW,292,3.0,3.0,72,0.00,,,0.00,meteohub,2013-03-08 11:57:00,
2013-03-08 07:02:00,29.7,21.4,30.22,WNW,292,0.0,4.0,71,0.00,,,0.00,meteohub,2013-03-08 12:02:00,
2013-03-08 07:07:00,30.4,21.7,30.22,WNW,292,3.0,4.0,70,0.00,,,0.00,meteohub,2013-03-08 12:07:00,
2013-03-08 07:12:00,30.9,21.6,30.22,WNW,292,0.0,4.0,68,0.00,,,0.00,meteohub,2013-03-08 12:12:00,
2013-03-08 07:17:00,31.5,21.4,30.22,WNW,292,0.0,4.0,66,0.00,,,0.00,meteohub,2013-03-08 12:17:00,
2013-03-08 07:22:00,31.8,21.0,30.22,WNW,292,0.0,4.0,64,0.00,,,0.00,meteohub,2013-03-08 12:22:00,
2013-03-08 07:27:00,32.5,21.4,30.22,WNW,292,0.0,4.0,63,0.00,,,0.00,meteohub,2013-03-08 12:27:00,
2013-03-08 07:32:00,33.1,21.0,30.22,North,0,0.0,3.0,61,0.00,,,0.00,meteohub,2013-03-08 12:32:00,
2013-03-08 07:37:00,33.6,20.5,30.22,North,0,0.0,3.0,58,0.00,,,0.00,meteohub,2013-03-08 12:37:00,
2013-03-08 07:42:00,34.3,20.3,30.22,West,270,0.0,3.0,56,0.00,,,0.00,meteohub,2013-03-08 12:42:00,
2013-03-08 07:47:00,34.9,19.9,30.22,West,270,4.0,4.0,54,0.00,,,0.00,meteohub,2013-03-08 12:47:00,
2013-03-08 07:52:00,35.6,19.8,30.22,North,0,3.0,4.0,52,0.00,,,0.00,meteohub,2013-03-08 12:52:00,
2013-03-08 07:57:00,36.1,19.8,30.22,WNW,292,3.0,4.0,51,0.00,,,0.00,meteohub,2013-03-08 12:57:00,
2013-03-08 08:02:00,36.9,19.4,30.22,NNW,338,3.0,5.0,49,0.00,,,0.00,meteohub,2013-03-08 13:02:00,
2013-03-08 08:07:00,37.4,19.6,30.22,West,270,2.0,5.0,48,0.00,,,0.00,meteohub,2013-03-08 13:07:00,
2013-03-08 08:12:00,38.1,19.6,30.22,NNE,22,3.0,5.0,47,0.00,,,0.00,meteohub,2013-03-08 13:12:00,
2013-03-08 08:17:00,39.0,19.4,30.22,NNE,22,2.0,4.0,45,0.00,,,0.00,meteohub,2013-03-08 13:17:00,
2013-03-08 08:22:00,39.2,19.0,30.22,WSW,248,3.0,4.0,44,0.00,,,0.00,meteohub,2013-03-08 13:22:00,
2013-03-08 08:27:00,40.1,19.4,30.22,NNW,338,3.0,4.0,43,0.00,,,0.00,meteohub,2013-03-08 13:27:00,
2013-03-08 08:32:00,40.8,20.1,30.22,NNE,22,2.0,4.0,43,0.00,,,0.00,meteohub,2013-03-08 13:32:00,
2013-03-08 08:37:00,41.4,19.9,30.22,WSW,248,4.0,4.0,42,0.00,,,0.00,meteohub,2013-03-08 13:37:00,
2013-03-08 08:42:00,41.7,20.3,30.22,NNE,22,4.0,6.0,42,0.00,,,0.00,meteohub,2013-03-08 13:42:00,
2013-03-08 08:47:00,41.9,19.9,30.22,NE,45,5.0,6.0,41,0.00,,,0.00,meteohub,2013-03-08 13:47:00,
2013-03-08 08:52:00,42.4,19.8,30.22,WSW,248,4.0,6.0,40,0.00,,,0.00,meteohub,2013-03-08 13:52:00,
2013-03-08 08:57:00,42.8,20.1,30.22,SSE,158,0.0,6.0,40,0.00,,,0.00,meteohub,2013-03-08 13:57:00,
2013-03-08 09:02:00,43.0,19.8,30.22,NW,315,4.0,6.0,39,0.00,,,0.00,meteohub,2013-03-08 14:02:00,
2013-03-08 09:07:00,43.7,21.0,30.22,ESE,112,3.0,7.0,40,0.00,,,0.00,meteohub,2013-03-08 14:07:00,
2013-03-08 09:12:00,43.7,19.8,30.25,North,0,8.0,11.0,38,0.00,,,0.00,meteohub,2013-03-08 14:12:00,
2013-03-08 09:17:00,44.1,20.7,30.25,NNE,22,4.0,11.0,39,0.00,,,0.00,meteohub,2013-03-08 14:17:00,
2013-03-08 09:22:00,44.8,20.7,30.25,NNW,338,3.0,11.0,38,0.00,,,0.00,meteohub,2013-03-08 14:22:00,
2013-03-08 09:27:00,45.0,20.8,30.22,NNE,22,4.0,11.0,38,0.00,,,0.00,meteohub,2013-03-08 14:27:00,
2013-03-08 09:32:00,45.1,21.0,30.22,North,0,5.0,8.0,38,0.00,,,0.00,meteohub,2013-03-08 14:32:00,
2013-03-08 09:37:00,45.0,20.3,30.22,NNW,338,6.0,8.0,37,0.00,,,0.00,meteohub,2013-03-08 14:37:00,
2013-03-08 09:42:00,45.3,19.9,30.22,NE,45,11.0,11.0,36,0.00,,,0.00,meteohub,2013-03-08 14:42:00,
2013-03-08 09:47:00,45.5,20.1,30.22,SW,225,6.0,13.0,36,0.00,,,0.00,meteohub,2013-03-08 14:47:00,
2013-03-08 09:52:00,46.0,19.9,30.22,NNE,22,7.0,13.0,35,0.00,,,0.00,meteohub,2013-03-08 14:52:00,
2013-03-08 09:57:00,46.2,18.7,30.25,North,0,6.0,13.0,33,0.00,,,0.00,meteohub,2013-03-08 14:57:00,
2013-03-08 10:02:00,46.2,18.7,30.25,NNW,338,5.0,13.0,33,0.00,,,0.00,meteohub,2013-03-08 15:02:00,
2013-03-08 10:07:00,46.8,19.2,30.25,NNE,22,5.0,13.0,33,0.00,,,0.00,meteohub,2013-03-08 15:07:00,
2013-03-08 10:12:00,46.9,18.7,30.22,NNE,22,5.0,13.0,32,0.00,,,0.00,meteohub,2013-03-08 15:12:00,
2013-03-08 10:17:00,47.1,18.0,30.22,NE,45,4.0,13.0,31,0.00,,,0.00,meteohub,2013-03-08 15:17:00,
2013-03-08 10:22:00,47.3,17.4,30.22,NE,45,8.0,13.0,30,0.00,,,0.00,meteohub,2013-03-08 15:22:00,
2013-03-08 10:27:00,47.5,17.6,30.22,North,0,8.0,13.0,30,0.00,,,0.00,meteohub,2013-03-08 15:27:00,
2013-03-08 10:32:00,47.1,16.5,30.22,NE,45,8.0,13.0,29,0.00,,,0.00,meteohub,2013-03-08 15:32:00,
2013-03-08 10:37:00,47.5,16.9,30.22,NNE,22,4.0,14.0,29,0.00,,,0.00,meteohub,2013-03-08 15:37:00,
2013-03-08 10:42:00,47.8,17.1,30.22,NNE,22,11.0,14.0,29,0.00,,,0.00,meteohub,2013-03-08 15:42:00,
2013-03-08 10:47:00,48.6,17.8,30.22,North,0,4.0,14.0,29,0.00,,,0.00,meteohub,2013-03-08 15:47:00,
2013-03-08 10:52:00,47.7,16.9,30.22,NNE,22,6.0,15.0,29,0.00,,,0.00,meteohub,2013-03-08 15:52:00,
2013-03-08 10:57:00,48.4,17.6,30.22,NNW,338,4.0,16.0,29,0.00,,,0.00,meteohub,2013-03-08 15:57:00,
2013-03-08 11:02:00,48.4,17.6,30.22,NNE,22,9.0,16.0,29,0.00,,,0.00,meteohub,2013-03-08 16:02:00,
2013-03-08 11:07:00,49.5,18.5,30.22,North,0,6.0,15.0,29,0.00,,,0.00,meteohub,2013-03-08 16:07:00,
2013-03-08 11:12:00,49.6,18.7,30.22,NNW,338,6.0,15.0,29,0.00,,,0.00,meteohub,2013-03-08 16:12:00,
2013-03-08 11:17:00,49.1,17.4,30.22,NNE,22,6.0,13.0,28,0.00,,,0.00,meteohub,2013-03-08 16:17:00,
2013-03-08 11:22:00,49.1,17.4,30.22,NNE,22,13.0,13.0,28,0.00,,,0.00,meteohub,2013-03-08 16:22:00,
2013-03-08 11:27:00,50.2,19.2,30.19,NE,45,3.0,15.0,29,0.00,,,0.00,meteohub,2013-03-08 16:27:00,
2013-03-08 11:32:00,50.9,18.9,30.19,NNE,22,11.0,15.0,28,0.00,,,0.00,meteohub,2013-03-08 16:32:00,
2013-03-08 11:37:00,49.6,17.8,30.19,NE,45,4.0,15.0,28,0.00,,,0.00,meteohub,2013-03-08 16:37:00,
2013-03-08 11:42:00,50.7,18.9,30.19,North,0,6.0,15.0,28,0.00,,,0.00,meteohub,2013-03-08 16:42:00,
2013-03-08 11:47:00,50.5,17.8,30.19,NE,45,11.0,15.0,27,0.00,,,0.00,meteohub,2013-03-08 16:47:00,
2013-03-08 11:52:00,50.2,18.3,30.19,East,90,9.0,13.0,28,0.00,,,0.00,meteohub,2013-03-08 16:52:00,
2013-03-08 11:57:00,51.1,19.0,30.19,ENE,68,8.0,14.0,28,0.00,,,0.00,meteohub,2013-03-08 16:57:00,
2013-03-08 12:02:00,51.6,19.6,30.19,NNE,22,4.0,15.0,28,0.00,,,0.00,meteohub,2013-03-08 17:02:00,
2013-03-08 12:07:00,51.6,18.7,30.19,North,0,6.0,15.0,27,0.00,,,0.00,meteohub,2013-03-08 17:07:00,
2013-03-08 12:12:00,50.7,18.0,30.19,NNE,22,14.0,15.0,27,0.00,,,0.00,meteohub,2013-03-08 17:12:00,
2013-03-08 12:17:00,51.3,18.3,30.19,East,90,11.0,15.0,27,0.00,,,0.00,meteohub,2013-03-08 17:17:00,
2013-03-08 12:22:00,51.4,18.5,30.19,NNE,22,10.0,15.0,27,0.00,,,0.00,meteohub,2013-03-08 17:22:00,
2013-03-08 12:27:00,52.0,18.1,30.19,ENE,68,9.0,15.0,26,0.00,,,0.00,meteohub,2013-03-08 17:27:00,
2013-03-08 12:32:00,51.3,18.3,30.19,NNE,22,6.0,16.0,27,0.00,,,0.00,meteohub,2013-03-08 17:32:00,
2013-03-08 12:38:00,51.3,18.3,30.19,NE,45,3.0,16.0,27,0.00,,,0.00,meteohub,2013-03-08 17:38:00,
2013-03-08 12:43:00,52.7,19.6,30.16,NNW,338,8.0,16.0,27,0.00,,,0.00,meteohub,2013-03-08 17:43:00,
2013-03-08 12:48:00,53.1,19.0,30.16,West,270,6.0,16.0,26,0.00,,,0.00,meteohub,2013-03-08 17:48:00,
2013-03-08 12:53:00,52.5,18.7,30.16,ENE,68,8.0,11.0,26,0.00,,,0.00,meteohub,2013-03-08 17:53:00,
2013-03-08 12:58:00,52.9,18.9,30.16,NNE,22,5.0,16.0,26,0.00,,,0.00,meteohub,2013-03-08 17:58:00,
2013-03-08 13:03:00,52.5,18.7,30.16,North,0,6.0,16.0,26,0.00,,,0.00,meteohub,2013-03-08 18:03:00,
2013-03-08 13:08:00,53.4,19.4,30.16,NW,315,5.0,16.0,26,0.00,,,0.00,meteohub,2013-03-08 18:08:00,
2013-03-08 13:13:00,53.4,19.4,30.16,West,270,6.0,15.0,26,0.00,,,0.00,meteohub,2013-03-08 18:13:00,
2013-03-08 13:18:00,54.1,19.9,30.16,NNW,338,4.0,15.0,26,0.00,,,0.00,meteohub,2013-03-08 18:18:00,
2013-03-08 13:23:00,54.5,20.3,30.16,North,0,7.0,14.0,26,0.00,,,0.00,meteohub,2013-03-08 18:23:00,
2013-03-08 13:28:00,54.1,19.9,30.16,NNW,338,11.0,11.0,26,0.00,,,0.00,meteohub,2013-03-08 18:28:00,
2013-03-08 13:33:00,54.3,20.1,30.16,NW,315,4.0,11.0,26,0.00,,,0.00,meteohub,2013-03-08 18:33:00,
2013-03-08 13:38:00,55.2,20.8,30.16,NE,45,3.0,11.0,26,0.00,,,0.00,meteohub,2013-03-08 18:38:00,
2013-03-08 13:43:00,54.7,20.5,30.16,NE,45,6.0,11.0,26,0.00,,,0.00,meteohub,2013-03-08 18:43:00,
2013-03-08 13:48:00,54.3,20.1,30.16,ENE,68,7.0,10.0,26,0.00,,,0.00,meteohub,2013-03-08 18:48:00,
2013-03-08 13:53:00,54.9,20.7,30.16,ENE,68,7.0,14.0,26,0.00,,,0.00,meteohub,2013-03-08 18:53:00,
2013-03-08 13:58:00,55.6,20.3,30.13,NNE,22,6.0,14.0,25,0.00,,,0.00,meteohub,2013-03-08 18:58:00,
2013-03-08 14:03:00,55.0,20.8,30.13,NNE,22,11.0,13.0,26,0.00,,,0.00,meteohub,2013-03-08 19:03:00,
2013-03-08 14:08:00,54.1,19.9,30.13,North,0,5.0,11.0,26,0.00,,,0.00,meteohub,2013-03-08 19:08:00,
2013-03-08 14:13:00,54.1,19.9,30.13,NE,45,3.0,17.0,26,0.00,,,0.00,meteohub,2013-03-08 19:13:00,
2013-03-08 14:18:00,54.9,20.7,30.13,NW,315,3.0,17.0,26,0.00,,,0.00,meteohub,2013-03-08 19:18:00,
2013-03-08 14:23:00,56.5,21.0,30.13,WNW,292,5.0,17.0,25,0.00,,,0.00,meteohub,2013-03-08 19:23:00,
2013-03-08 14:28:00,55.4,20.1,30.13,NNW,338,3.0,13.0,25,0.00,,,0.00,meteohub,2013-03-08 19:28:00,
2013-03-08 14:33:00,56.1,20.8,30.13,NNW,338,3.0,11.0,25,0.00,,,0.00,meteohub,2013-03-08 19:33:00,
2013-03-08 14:38:00,56.7,21.2,30.13,NNE,22,11.0,11.0,25,0.00,,,0.00,meteohub,2013-03-08 19:38:00,
2013-03-08 14:43:00,57.0,21.6,30.13,WNW,292,5.0,11.0,25,0.00,,,0.00,meteohub,2013-03-08 19:43:00,
2013-03-08 14:48:00,56.8,21.4,30.13,SSE,158,4.0,11.0,25,0.00,,,0.00,meteohub,2013-03-08 19:48:00,
2013-03-08 14:53:00,57.2,21.7,30.13,NNE,22,9.0,11.0,25,0.00,,,0.00,meteohub,2013-03-08 19:53:00,
2013-03-08 14:58:00,55.4,20.1,30.13,NNE,22,10.0,11.0,25,0.00,,,0.00,meteohub,2013-03-08 19:58:00,
2013-03-08 15:03:00,55.4,20.1,30.13,NE,45,3.0,11.0,25,0.00,,,0.00,meteohub,2013-03-08 20:03:00,
2013-03-08 15:08:00,56.1,20.8,30.13,North,0,2.0,17.0,25,0.00,,,0.00,meteohub,2013-03-08 20:08:00,
2013-03-08 15:13:00,56.5,21.0,30.13,WNW,292,3.0,17.0,25,0.00,,,0.00,meteohub,2013-03-08 20:13:00,
2013-03-08 15:18:00,56.8,21.4,30.13,ENE,68,11.0,11.0,25,0.00,,,0.00,meteohub,2013-03-08 20:18:00,
2013-03-08 15:23:00,56.3,20.8,30.13,NNW,338,6.0,13.0,25,0.00,,,0.00,meteohub,2013-03-08 20:23:00,
2013-03-08 15:28:00,57.2,21.7,30.13,NE,45,5.0,13.0,25,0.00,,,0.00,meteohub,2013-03-08 20:28:00,
2013-03-08 15:33:00,56.5,21.0,30.13,NE,45,6.0,13.0,25,0.00,,,0.00,meteohub,2013-03-08 20:33:00,
2013-03-08 15:38:00,56.7,21.2,30.13,North,0,4.0,13.0,25,0.00,,,0.00,meteohub,2013-03-08 20:38:00,
2013-03-08 15:43:00,57.2,21.7,30.13,NNE,22,5.0,13.0,25,0.00,,,0.00,meteohub,2013-03-08 20:43:00,
2013-03-08 15:48:00,57.0,21.6,30.13,NE,45,3.0,13.0,25,0.00,,,0.00,meteohub,2013-03-08 20:48:00,
2013-03-08 15:53:00,56.7,21.2,30.13,North,0,7.0,15.0,25,0.00,,,0.00,meteohub,2013-03-08 20:53:00,
2013-03-08 15:58:00,57.2,21.7,30.13,SSW,202,4.0,15.0,25,0.00,,,0.00,meteohub,2013-03-08 20:58:00,
2013-03-08 16:03:00,56.3,20.8,30.13,North,0,9.0,15.0,25,0.00,,,0.00,meteohub,2013-03-08 21:03:00,
2013-03-08 16:08:00,56.5,21.0,30.13,NE,45,6.0,12.0,25,0.00,,,0.00,meteohub,2013-03-08 21:08:00,
2013-03-08 16:13:00,56.5,21.0,30.16,ENE,68,3.0,12.0,25,0.00,,,0.00,meteohub,2013-03-08 21:13:00,
2013-03-08 16:18:00,56.3,20.8,30.16,NNW,338,8.0,12.0,25,0.00,,,0.00,meteohub,2013-03-08 21:18:00,
2013-03-08 16:23:00,55.8,20.5,30.16,NNE,22,8.0,11.0,25,0.00,,,0.00,meteohub,2013-03-08 21:23:00,
2013-03-08 16:28:00,56.1,20.8,30.16,SSE,158,4.0,11.0,25,0.00,,,0.00,meteohub,2013-03-08 21:28:00,
2013-03-08 16:33:00,57.6,21.9,30.16,WSW,248,4.0,12.0,25,0.00,,,0.00,meteohub,2013-03-08 21:33:00,
2013-03-08 16:38:00,57.6,21.0,30.16,WSW,248,6.0,12.0,24,0.00,,,0.00,meteohub,2013-03-08 21:38:00,
2013-03-08 16:43:00,56.8,21.4,30.16,NNW,338,9.0,10.0,25,0.00,,,0.00,meteohub,2013-03-08 21:43:00,
2013-03-08 16:48:00,56.8,21.4,30.16,NNE,22,6.0,12.0,25,0.00,,,0.00,meteohub,2013-03-08 21:48:00,
2013-03-08 16:54:00,55.8,20.5,30.16,NNE,22,5.0,12.0,25,0.00,,,0.00,meteohub,2013-03-08 21:54:00,
2013-03-08 16:59:00,55.2,19.9,30.16,NNW,338,6.0,12.0,25,0.00,,,0.00,meteohub,2013-03-08 21:59:00,
2013-03-08 17:04:00,55.2,19.9,30.16,North,0,4.0,11.0,25,0.00,,,0.00,meteohub,2013-03-08 22:04:00,
2013-03-08 17:09:00,54.7,19.6,30.16,NNW,338,3.0,11.0,25,0.00,,,0.00,meteohub,2013-03-08 22:09:00,
2013-03-08 17:14:00,54.5,19.4,30.16,North,0,5.0,11.0,25,0.00,,,0.00,meteohub,2013-03-08 22:14:00,
2013-03-08 17:19:00,54.1,19.0,30.16,West,270,3.0,9.0,25,0.00,,,0.00,meteohub,2013-03-08 22:19:00,
2013-03-08 17:24:00,54.0,18.9,30.16,NE,45,8.0,8.0,25,0.00,,,0.00,meteohub,2013-03-08 22:24:00,
2013-03-08 17:29:00,53.4,19.4,30.16,ESE,112,3.0,8.0,26,0.00,,,0.00,meteohub,2013-03-08 22:29:00,
2013-03-08 17:34:00,53.1,19.0,30.16,NNW,338,3.0,8.0,26,0.00,,,0.00,meteohub,2013-03-08 22:34:00,
2013-03-08 17:39:00,52.7,18.7,30.16,NNW,338,4.0,8.0,26,0.00,,,0.00,meteohub,2013-03-08 22:39:00,
2013-03-08 17:44:00,52.2,18.3,30.16,NNE,22,5.0,8.0,26,0.00,,,0.00,meteohub,2013-03-08 22:44:00,
2013-03-08 17:49:00,52.0,18.1,30.16,NW,315,2.0,10.0,26,0.00,,,0.00,meteohub,2013-03-08 22:49:00,
2013-03-08 17:54:00,51.6,17.8,30.16,NE,45,3.0,10.0,26,0.00,,,0.00,meteohub,2013-03-08 22:54:00,
2013-03-08 17:59:00,51.1,18.3,30.16,NW,315,0.0,10.0,27,0.00,,,0.00,meteohub,2013-03-08 22:59:00,
2013-03-08 18:04:00,50.7,18.0,30.16,NNW,338,0.0,10.0,27,0.00,,,0.00,meteohub,2013-03-08 23:04:00,
2013-03-08 18:09:00,50.0,17.2,30.16,NNW,338,0.0,5.0,27,0.00,,,0.00,meteohub,2013-03-08 23:09:00,
2013-03-08 18:14:00,49.3,16.7,30.16,North,0,0.0,5.0,27,0.00,,,0.00,meteohub,2013-03-08 23:14:00,
2013-03-08 18:19:00,49.3,16.7,30.16,NNE,22,0.0,4.0,27,0.00,,,0.00,meteohub,2013-03-08 23:19:00,
2013-03-08 18:24:00,48.7,17.1,30.16,NNW,338,0.0,5.0,28,0.00,,,0.00,meteohub,2013-03-08 23:24:00,
2013-03-08 18:29:00,48.0,17.2,30.19,NNW,338,0.0,5.0,29,0.00,,,0.00,meteohub,2013-03-08 23:29:00,
2013-03-08 18:34:00,47.5,16.9,30.19,NNW,338,0.0,3.0,29,0.00,,,0.00,meteohub,2013-03-08 23:34:00,
2013-03-08 18:39:00,47.1,16.5,30.19,North,0,0.0,2.0,29,0.00,,,0.00,meteohub,2013-03-08 23:39:00,
2013-03-08 18:44:00,46.6,16.0,30.19,North,0,0.0,0.0,29,0.00,,,0.00,meteohub,2013-03-08 23:44:00,
2013-03-08 18:49:00,46.2,16.5,30.19,North,0,0.0,0.0,30,0.00,,,0.00,meteohub,2013-03-08 23:49:00,
2013-03-08 18:54:00,46.0,17.1,30.19,NNE,22,0.0,0.0,31,0.00,,,0.00,meteohub,2013-03-08 23:54:00,
2013-03-08 18:59:00,45.5,17.4,30.19,NNE,22,0.0,3.0,32,0.00,,,0.00,meteohub,2013-03-08 23:59:00,
2013-03-08 19:04:00,44.8,17.4,30.19,NNE,22,0.0,3.0,33,0.00,,,0.00,meteohub,2013-03-09 00:04:00,
2013-03-08 19:09:00,44.2,18.3,30.19,North,0,2.0,0.0,35,0.00,,,0.00,meteohub,2013-03-09 00:09:00,
2013-03-08 19:14:00,44.8,17.4,30.19,North,0,0.0,3.0,33,0.00,,,0.00,meteohub,2013-03-09 00:14:00,
2013-03-08 19:19:00,44.1,18.1,30.19,NE,45,0.0,3.0,35,0.00,,,0.00,meteohub,2013-03-09 00:19:00,
2013-03-08 19:24:00,43.9,18.7,30.19,NNW,338,0.0,3.0,36,0.00,,,0.00,meteohub,2013-03-09 00:24:00,
2013-03-08 19:29:00,43.7,18.5,30.19,North,0,0.0,3.0,36,0.00,,,0.00,meteohub,2013-03-09 00:29:00,
2013-03-08 19:34:00,43.2,18.7,30.19,North,0,0.0,2.0,37,0.00,,,0.00,meteohub,2013-03-09 00:34:00,
2013-03-08 19:39:00,43.3,19.4,30.19,NNW,338,2.0,2.0,38,0.00,,,0.00,meteohub,2013-03-09 00:39:00,
2013-03-08 19:44:00,43.2,19.2,30.22,NNW,338,3.0,3.0,38,0.00,,,0.00,meteohub,2013-03-09 00:44:00,
2013-03-08 19:49:00,43.9,19.2,30.22,NNW,338,3.0,4.0,37,0.00,,,0.00,meteohub,2013-03-09 00:49:00,
2013-03-08 19:54:00,43.5,19.6,30.22,NW,315,0.0,4.0,38,0.00,,,0.00,meteohub,2013-03-09 00:54:00,
2013-03-08 19:59:00,43.3,18.9,30.22,NW,315,0.0,4.0,37,0.00,,,0.00,meteohub,2013-03-09 00:59:00,
2013-03-08 20:04:00,43.0,18.5,30.22,NNE,22,3.0,3.0,37,0.00,,,0.00,meteohub,2013-03-09 01:04:00,
2013-03-08 20:09:00,43.0,18.5,30.22,NNE,22,3.0,3.0,37,0.00,,,0.00,meteohub,2013-03-09 01:09:00,
2013-03-08 20:14:00,42.8,18.9,30.22,NNE,22,3.0,3.0,38,0.00,,,0.00,meteohub,2013-03-09 01:14:00,
2013-03-08 20:19:00,42.4,18.7,30.22,SSE,158,2.0,4.0,38,0.00,,,0.00,meteohub,2013-03-09 01:19:00,
2013-03-08 20:24:00,42.3,18.5,30.22,ESE,112,3.0,4.0,38,0.00,,,0.00,meteohub,2013-03-09 01:24:00,
2013-03-08 20:29:00,43.0,19.0,30.22,NNE,22,0.0,4.0,38,0.00,,,0.00,meteohub,2013-03-09 01:29:00,
2013-03-08 20:34:00,43.0,19.0,30.22,ESE,112,3.0,4.0,38,0.00,,,0.00,meteohub,2013-03-09 01:34:00,
2013-03-08 20:39:00,43.5,19.0,30.22,NE,45,3.0,4.0,37,0.00,,,0.00,meteohub,2013-03-09 01:39:00,
2013-03-08 20:44:00,43.7,18.5,30.22,NNE,22,4.0,5.0,36,0.00,,,0.00,meteohub,2013-03-09 01:44:00,
2013-03-08 20:49:00,43.9,18.7,30.22,SSE,158,2.0,6.0,36,0.00,,,0.00,meteohub,2013-03-09 01:49:00,
2013-03-08 20:54:00,44.1,18.9,30.22,NNW,338,4.0,6.0,36,0.00,,,0.00,meteohub,2013-03-09 01:54:00,
2013-03-08 20:59:00,44.2,19.0,30.22,SSE,158,2.0,6.0,36,0.00,,,0.00,meteohub,2013-03-09 01:59:00,
2013-03-08 21:04:00,44.6,18.7,30.22,NNE,22,5.0,8.0,35,0.00,,,0.00,meteohub,2013-03-09 02:04:00,
2013-03-08 21:09:00,44.8,18.9,30.22,NE,45,8.0,8.0,35,0.00,,,0.00,meteohub,2013-03-09 02:09:00,
2013-03-08 21:14:00,44.4,18.5,30.22,NE,45,4.0,8.0,35,0.00,,,0.00,meteohub,2013-03-09 02:14:00,
2013-03-08 21:19:00,44.1,18.9,30.22,NE,45,5.0,8.0,36,0.00,,,0.00,meteohub,2013-03-09 02:19:00,
2013-03-08 21:24:00,44.2,19.0,30.22,NNE,22,8.0,8.0,36,0.00,,,0.00,meteohub,2013-03-09 02:24:00,
2013-03-08 21:29:00,44.2,19.0,30.25,SE,135,6.0,8.0,36,0.00,,,0.00,meteohub,2013-03-09 02:29:00,
2013-03-08 21:34:00,44.1,18.9,30.25,NNW,338,8.0,8.0,36,0.00,,,0.00,meteohub,2013-03-09 02:34:00,
2013-03-08 21:39:00,44.1,18.9,30.25,ESE,112,0.0,8.0,36,0.00,,,0.00,meteohub,2013-03-09 02:39:00,
2013-03-08 21:44:00,43.7,18.5,30.25,NE,45,6.0,9.0,36,0.00,,,0.00,meteohub,2013-03-09 02:44:00,
2013-03-08 21:50:00,43.9,18.7,30.25,NNE,22,6.0,9.0,36,0.00,,,0.00,meteohub,2013-03-09 02:50:00,
2013-03-08 21:55:00,43.9,18.7,30.25,NNE,22,3.0,9.0,36,0.00,,,0.00,meteohub,2013-03-09 02:55:00,
2013-03-08 22:00:00,43.5,19.0,30.25,NNE,22,3.0,9.0,37,0.00,,,0.00,meteohub,2013-03-09 03:00:00,
2013-03-08 22:05:00,43.3,18.9,30.25,ENE,68,5.0,9.0,37,0.00,,,0.00,meteohub,2013-03-09 03:05:00,
2013-03-08 22:10:00,43.0,18.5,30.25,NE,45,3.0,9.0,37,0.00,,,0.00,meteohub,2013-03-09 03:10:00,
2013-03-08 22:15:00,42.8,18.9,30.25,ENE,68,3.0,8.0,38,0.00,,,0.00,meteohub,2013-03-09 03:15:00,
2013-03-08 22:20:00,42.6,18.9,30.25,NNE,22,4.0,6.0,38,0.00,,,0.00,meteohub,2013-03-09 03:20:00,
2013-03-08 22:25:00,42.4,18.7,30.25,ENE,68,2.0,6.0,38,0.00,,,0.00,meteohub,2013-03-09 03:25:00,
2013-03-08 22:30:00,42.1,18.3,30.27,NE,45,3.0,6.0,38,0.00,,,0.00,meteohub,2013-03-09 03:30:00,
2013-03-08 22:35:00,42.1,18.3,30.27,North,0,3.0,8.0,38,0.00,,,0.00,meteohub,2013-03-09 03:35:00,
2013-03-08 22:40:00,42.1,18.9,30.27,NNE,22,3.0,8.0,39,0.00,,,0.00,meteohub,2013-03-09 03:40:00,
2013-03-08 22:45:00,42.1,18.9,30.27,NE,45,5.0,8.0,39,0.00,,,0.00,meteohub,2013-03-09 03:45:00,
2013-03-08 22:50:00,41.9,18.7,30.27,NNE,22,4.0,8.0,39,0.00,,,0.00,meteohub,2013-03-09 03:50:00,
2013-03-08 22:55:00,41.7,18.5,30.27,NNE,22,3.0,8.0,39,0.00,,,0.00,meteohub,2013-03-09 03:55:00,
2013-03-08 23:00:00,41.7,18.5,30.27,NE,45,5.0,8.0,39,0.00,,,0.00,meteohub,2013-03-09 04:00:00,
2013-03-08 23:05:00,41.5,18.5,30.27,North,0,4.0,7.0,39,0.00,,,0.00,meteohub,2013-03-09 04:05:00,
2013-03-08 23:10:00,41.2,18.1,30.27,NE,45,4.0,7.0,39,0.00,,,0.00,meteohub,2013-03-09 04:10:00,
2013-03-08 23:15:00,41.0,18.0,30.27,NNE,22,4.0,6.0,39,0.00,,,0.00,meteohub,2013-03-09 04:15:00,
2013-03-08 23:20:00,41.0,18.0,30.27,NE,45,2.0,6.0,39,0.00,,,0.00,meteohub,2013-03-09 04:20:00,
2013-03-08 23:25:00,40.6,18.1,30.27,NNE,22,3.0,6.0,40,0.00,,,0.00,meteohub,2013-03-09 04:25:00,
2013-03-08 23:30:00,40.6,18.1,30.27,NNW,338,3.0,6.0,40,0.00,,,0.00,meteohub,2013-03-09 04:30:00,
2013-03-08 23:35:00,40.1,18.3,30.27,WNW,292,2.0,6.0,41,0.00,,,0.00,meteohub,2013-03-09 04:35:00,
2013-03-08 23:40:00,39.7,18.0,30.27,WNW,292,0.0,6.0,41,0.00,,,0.00,meteohub,2013-03-09 04:40:00,
2013-03-08 23:45:00,39.4,18.1,30.27,WNW,292,0.0,4.0,42,0.00,,,0.00,meteohub,2013-03-09 04:45:00,
2013-03-08 23:50:00,39.2,18.0,30.27,NNW,338,3.0,3.0,42,0.00,,,0.00,meteohub,2013-03-09 04:50:00,
2013-03-08 23:55:00,39.2,18.0,30.27,NNE,22,3.0,4.0,42,0.00,,,0.00,meteohub,2013-03-09 04:55:00,